Climbing Hill, IA (51015)

11:00 AM CDT on August 20, 2014 (GMT -0500)
Sioux Gateway | Change Station
CLOSE
Current Station
Airport
Location: Sioux City,
Elevation: 1102 ft
Nearby Weather Stations

Elev 1102 ft 42.39 °N, 96.38 °W | Updated 8 minutes ago

Light Rain
Light Rain
72 °F
Feels Like 72 °F
N
7
Wind Variable Wind from SSE

Today
High -- | Low -- °F
--% Chance of Precip.
Yesterday
High -- | Low -- °F
Precip. -- in
6:36 AM 8:17 PM
Waning Crescent, 21% visible
Pressure 29.80 in
Visibility 10.0 miles
Clouds Few 6000 ft
Scattered Clouds 8500 ft
Mostly Cloudy 11000 ft
Dew Point 67 °F
Humidity 84%
Rainfall 2.00 in
Snow Depth Not available.
UV 3 out of 12
Pollen 7.90 out of 12
Air Quality Not available.
Flu Activity Not available.
METAR KSUX 201552Z 15006KT 10SM -RA FEW060 SCT085 BKN110 22/19 A2982 RMK AO2 LTG DSNT W RAB14E25B44 SLP090 P0000 T02220194

More Conditions Fewer Conditions

Pressure 29.80 in
Visibility 10.0 miles
Clouds Few 6000 ft
Scattered Clouds 8500 ft
Mostly Cloudy 11000 ft
Dew Point 67 °F
Humidity 84%
Rainfall 2.00 in
Snow Depth Not available.
UV 3 out of 12
Pollen 7.90 out of 12
Air Quality Not available.
Flu Activity Not available.
METAR KSUX 201552Z 15006KT 10SM -RA FEW060 SCT085 BKN110 22/19 A2982 RMK AO2 LTG DSNT W RAB14E25B44 SLP090 P0000 T02220194

More Conditions Fewer Conditions

10-Day Weather Forecast

Almanac

Astronomy

Aug. 20, 2014 Rise Set
Actual Time 6:36 AM CDT 8:17 PM CDT
Civil Twilight 6:07 AM CDT 8:47 PM CDT
Nautical Twilight 5:30 AM CDT 9:23 PM CDT
Astronomical Twilight 4:52 AM CDT 10:02 PM CDT
Moon 2:15 AM CDT 5:05 PM CDT
Length of Visible Light 14h 40m
Length of Day
13h 40m
Tomorrow will be 2m 36s shorter.
Waning Crescent, 21% of the Moon is Illuminated
Today
Waning Crescent
Aug 25
New
Sep 2
First Quarter
Sep 8
Full
Sep 15
Last Quarter

Today's Extremes

State Highs State Lows

Community

WunderPhotos

Upload Photos

1,745,677 photos uploaded!

WunderBlogs® & News

Nearby

Snow Depth

Station Depth Elevation
No new snow has been reported.

Earthquake Activity

City Distance Mag. Time & Date
No recent earthquake activity has been reported nearby.
Minimum magnitude displayed is 2.5.

Coastal Water Temperatures

Place Temperature
No Stations Reporting

Nearby Weather Stations